createdAt,value
2018-05-16T00:01:45.607Z,15.23
2018-05-16T00:04:11.925Z,16.03
2018-05-16T00:06:38.469Z,12.30
2018-05-16T00:09:04.859Z,14.23
2018-05-16T00:11:31.174Z,16.97
2018-05-16T00:13:58.234Z,13.40
2018-05-16T00:16:24.590Z,14.90
2018-05-16T00:18:50.893Z,12.00
2018-05-16T00:21:17.213Z,13.27
2018-05-16T00:23:43.585Z,14.03
2018-05-16T00:26:09.904Z,11.67
2018-05-16T00:28:36.221Z,12.73
2018-05-16T00:31:02.594Z,12.03
2018-05-16T00:33:29.033Z,17.13
2018-05-16T00:35:55.402Z,15.77
2018-05-16T00:38:21.745Z,16.33
2018-05-16T00:40:48.057Z,14.53
2018-05-16T00:43:14.445Z,14.23
2018-05-16T00:45:40.781Z,15.03
2018-05-16T00:48:07.107Z,12.67
2018-05-16T00:50:33.474Z,19.13
2018-05-16T00:53:00.653Z,17.07
2018-05-16T00:55:27.051Z,14.13
2018-05-16T00:57:54.168Z,16.63
2018-05-16T01:00:20.492Z,14.23
2018-05-16T01:02:46.821Z,14.80
2018-05-16T01:05:13.131Z,11.37
2018-05-16T01:07:39.737Z,10.67
2018-05-16T01:10:06.803Z,16.30
2018-05-16T01:12:33.931Z,16.50
2018-05-16T01:15:01.021Z,18.00
2018-05-16T01:17:27.590Z,21.47
2018-05-16T01:19:53.965Z,14.50
2018-05-16T01:22:20.288Z,13.00
2018-05-16T01:24:47.341Z,14.23
2018-05-16T01:27:13.853Z,14.47
2018-05-16T01:29:40.205Z,12.97
2018-05-16T01:32:06.529Z,15.93
2018-05-16T01:34:33.631Z,14.80
2018-05-16T01:37:00.173Z,15.40
2018-05-16T01:39:26.522Z,13.27
2018-05-16T01:41:52.877Z,12.63
2018-05-16T01:44:19.192Z,15.00
2018-05-16T01:46:45.844Z,15.80
2018-05-16T01:49:19.222Z,14.50
2018-05-16T01:51:45.553Z,15.80
2018-05-16T01:54:11.890Z,14.20
2018-05-16T01:56:38.410Z,14.10
2018-05-16T01:59:04.806Z,17.43
2018-05-16T02:01:31.207Z,13.43
2018-05-16T02:03:58.253Z,17.47
2018-05-16T02:06:24.886Z,14.10
2018-05-16T02:08:51.213Z,12.97
2018-05-16T02:11:18.305Z,15.47
2018-05-16T02:13:44.654Z,14.53
2018-05-16T02:16:11.030Z,15.57
2018-05-16T02:18:37.477Z,19.30
2018-05-16T02:21:05.142Z,14.33
2018-05-16T02:23:31.545Z,13.50
2018-05-16T02:25:58.909Z,16.53
2018-05-16T02:28:26.226Z,18.27
2018-05-16T02:30:52.878Z,13.43
2018-05-16T02:33:19.253Z,14.50
2018-05-16T02:35:45.705Z,13.33
2018-05-16T02:38:12.106Z,13.50
2018-05-16T02:40:39.194Z,21.07
2018-05-16T02:43:05.581Z,19.13
2018-05-16T02:45:32.754Z,14.57
2018-05-16T02:47:59.266Z,16.17
2018-05-16T02:50:25.699Z,14.60
2018-05-16T02:52:52.855Z,13.90
2018-05-16T02:55:19.986Z,14.13
2018-05-16T02:57:46.345Z,13.63
2018-05-16T03:00:12.666Z,14.50
2018-05-16T03:02:38.985Z,14.23
2018-05-16T03:05:06.077Z,17.80
2018-05-16T03:07:32.426Z,13.40
2018-05-16T03:09:58.788Z,14.33
2018-05-16T03:12:25.198Z,13.90
2018-05-16T03:14:51.565Z,14.57
2018-05-16T03:17:18.489Z,14.27
2018-05-16T03:19:44.814Z,14.83
2018-05-16T03:22:11.211Z,15.10
2018-05-16T03:24:37.557Z,13.47
2018-05-16T03:27:03.946Z,13.80
2018-05-16T03:29:31.067Z,14.20
2018-05-16T03:31:57.422Z,15.30
2018-05-16T03:34:24.510Z,13.97
2018-05-16T03:36:51.092Z,13.80
2018-05-16T03:39:17.439Z,14.80
2018-05-16T03:41:44.571Z,14.23
2018-05-16T03:44:10.947Z,14.07
2018-05-16T03:46:37.430Z,14.33
2018-05-16T03:49:04.567Z,15.70
2018-05-16T03:51:31.094Z,15.27
2018-05-16T03:53:57.414Z,12.93
2018-05-16T03:56:23.958Z,13.33
2018-05-16T03:59:02.461Z,14.10
2018-05-16T04:01:40.972Z,17.33
2018-05-16T04:04:15.388Z,14.53
2018-05-16T04:06:42.153Z,14.83
2018-05-16T04:09:08.531Z,14.60
2018-05-16T04:11:35.674Z,15.83
2018-05-16T04:14:02.789Z,14.07
2018-05-16T04:16:31.122Z,14.67
2018-05-16T04:18:58.350Z,13.50
2018-05-16T04:21:24.878Z,14.03
2018-05-16T04:23:51.350Z,12.43
2018-05-16T04:26:17.949Z,14.80
2018-05-16T04:28:44.370Z,13.73
2018-05-16T04:31:10.770Z,14.00
2018-05-16T04:33:37.110Z,14.33
2018-05-16T04:36:03.673Z,12.80
2018-05-16T04:38:30.064Z,13.43
2018-05-16T04:40:56.450Z,13.97
2018-05-16T04:43:23.535Z,14.07
2018-05-16T04:45:49.921Z,13.53
2018-05-16T04:48:16.225Z,13.00
2018-05-16T04:50:42.539Z,13.70
2018-05-16T04:53:08.881Z,13.87
2018-05-16T04:55:35.279Z,14.00
2018-05-16T04:58:01.746Z,13.77
2018-05-16T05:00:28.077Z,15.50
2018-05-16T05:02:54.421Z,14.00
2018-05-16T05:05:20.762Z,14.57
2018-05-16T05:07:47.077Z,14.77
2018-05-16T05:10:13.394Z,14.17
2018-05-16T05:12:39.734Z,15.87
2018-05-16T05:15:06.051Z,15.80
2018-05-16T05:17:32.441Z,15.27
2018-05-16T05:19:58.789Z,15.80
2018-05-16T05:22:25.173Z,15.83
2018-05-16T05:24:51.537Z,14.40
2018-05-16T05:27:18.267Z,15.57
2018-05-16T05:29:44.631Z,14.40
2018-05-16T05:32:11.033Z,14.97
2018-05-16T05:34:37.341Z,16.10
2018-05-16T05:37:04.222Z,13.90
2018-05-16T05:39:30.891Z,15.77
2018-05-16T05:41:57.293Z,15.00
2018-05-16T05:44:24.522Z,15.70
2018-05-16T05:46:51.305Z,15.73
2018-05-16T05:49:17.741Z,15.53
2018-05-16T05:51:44.074Z,16.30
2018-05-16T05:54:10.449Z,14.40
2018-05-16T05:56:37.074Z,16.27
2018-05-16T05:59:03.586Z,15.93
2018-05-16T06:01:30.010Z,14.43
2018-05-16T06:03:56.367Z,15.27
2018-05-16T06:06:22.885Z,15.43
2018-05-16T06:08:49.281Z,16.67
2018-05-16T06:11:16.506Z,15.63
2018-05-16T06:13:42.842Z,14.97
2018-05-16T06:16:09.366Z,14.77
2018-05-16T06:18:35.782Z,15.50
2018-05-16T06:21:02.252Z,15.10
2018-05-16T06:23:28.634Z,16.40
2018-05-16T06:25:55.001Z,16.47
2018-05-16T06:28:21.472Z,18.57
2018-05-16T06:30:48.413Z,15.57
2018-05-16T06:33:14.947Z,15.87
2018-05-16T06:35:42.153Z,14.60
2018-05-16T06:38:08.654Z,20.17
2018-05-16T06:40:35.761Z,17.67
2018-05-16T06:43:02.898Z,14.73
2018-05-16T06:45:29.266Z,16.00
2018-05-16T06:47:56.345Z,16.57
2018-05-16T06:50:23.414Z,14.17
2018-05-16T06:52:49.833Z,15.97
2018-05-16T06:55:16.212Z,12.87
2018-05-16T06:57:43.495Z,13.40
2018-05-16T07:00:09.897Z,13.90
2018-05-16T07:02:36.279Z,11.83
2018-05-16T07:05:02.726Z,12.37
2018-05-16T07:07:29.337Z,11.87
2018-05-16T07:09:55.670Z,16.23
2018-05-16T07:12:22.272Z,13.57
2018-05-16T07:14:49.333Z,15.93
2018-05-16T07:17:16.665Z,19.30
2018-05-16T07:19:43.207Z,13.43
2018-05-16T07:22:09.537Z,15.60
2018-05-16T07:24:36.653Z,14.77
2018-05-16T07:27:03.262Z,16.60
2018-05-16T07:29:30.575Z,14.40
2018-05-16T07:31:56.974Z,14.00
2018-05-16T07:34:23.322Z,12.60
2018-05-16T07:36:49.937Z,15.40
2018-05-16T07:39:16.337Z,17.90
2018-05-16T07:41:42.874Z,16.13
2018-05-16T07:44:09.230Z,13.57
2018-05-16T07:46:35.773Z,14.93
2018-05-16T07:49:02.166Z,13.97
2018-05-16T07:51:28.563Z,16.17
2018-05-16T07:53:54.869Z,13.10
2018-05-16T07:56:21.226Z,15.67
2018-05-16T07:58:47.554Z,14.10
2018-05-16T08:01:13.857Z,13.70
2018-05-16T08:03:40.245Z,13.77
2018-05-16T08:06:07.391Z,13.37
2018-05-16T08:08:34.438Z,12.93
2018-05-16T08:11:01.618Z,16.13
2018-05-16T08:13:27.955Z,13.80
2018-05-16T08:15:54.321Z,14.67
2018-05-16T08:18:20.658Z,19.37
2018-05-16T08:20:46.985Z,12.87
2018-05-16T08:23:13.357Z,11.57
2018-05-16T08:25:40.434Z,11.07
2018-05-16T08:28:06.773Z,12.53
2018-05-16T08:30:34.010Z,11.87
2018-05-16T08:33:00.317Z,12.77
2018-05-16T08:35:26.638Z,11.17
2018-05-16T08:37:53.718Z,11.40
2018-05-16T08:40:20.058Z,11.60
2018-05-16T08:42:46.414Z,13.20
2018-05-16T08:45:13.490Z,14.40
2018-05-16T08:47:40.580Z,15.47
2018-05-16T08:50:07.716Z,16.03
2018-05-16T08:52:34.863Z,15.27
2018-05-16T08:55:01.287Z,14.67
2018-05-16T08:57:27.612Z,12.73
2018-05-16T08:59:54.692Z,12.23
2018-05-16T09:02:21.026Z,11.53
2018-05-16T09:04:47.368Z,11.47
2018-05-16T09:07:13.840Z,12.07
2018-05-16T09:09:40.897Z,11.00
2018-05-16T09:12:08.005Z,12.27
2018-05-16T09:14:34.377Z,11.37
2018-05-16T09:17:01.621Z,11.00
2018-05-16T09:19:27.942Z,11.33
2018-05-16T09:21:54.289Z,10.10
2018-05-16T09:24:21.470Z,12.73
2018-05-16T09:26:47.938Z,11.40
2018-05-16T09:29:14.245Z,11.27
2018-05-16T09:31:40.590Z,10.70
2018-05-16T09:34:06.943Z,12.03
2018-05-16T09:36:33.525Z,12.50
2018-05-16T09:38:59.872Z,13.30
2018-05-16T09:41:26.186Z,10.67
2018-05-16T09:43:52.481Z,11.93
2018-05-16T09:46:19.049Z,11.27
2018-05-16T09:48:45.399Z,11.57
2018-05-16T09:51:11.718Z,12.37
2018-05-16T09:53:38.035Z,13.43
2018-05-16T09:56:05.315Z,12.07
2018-05-16T09:58:31.773Z,12.90
2018-05-16T10:00:58.109Z,13.57
2018-05-16T10:03:24.444Z,14.77
2018-05-16T10:05:50.789Z,14.90
2018-05-16T10:08:17.125Z,14.93
2018-05-16T10:10:43.445Z,12.97
2018-05-16T10:13:09.793Z,11.60
2018-05-16T10:15:36.117Z,14.27
2018-05-16T10:18:02.625Z,14.67
2018-05-16T10:20:28.961Z,14.47
2018-05-16T10:22:55.273Z,13.67
2018-05-16T10:25:21.604Z,14.83
2018-05-16T10:27:47.952Z,13.90
2018-05-16T10:30:14.262Z,12.87
2018-05-16T10:32:40.652Z,15.00
2018-05-16T10:35:07.034Z,13.13
2018-05-16T10:37:33.433Z,13.73
2018-05-16T10:39:59.801Z,13.37
2018-05-16T10:42:26.139Z,12.93
2018-05-16T10:44:52.513Z,12.60
2018-05-16T10:47:19.048Z,12.63
2018-05-16T10:49:46.126Z,12.93
2018-05-16T10:52:12.541Z,13.77
2018-05-16T10:54:38.825Z,12.53
2018-05-16T10:57:05.637Z,13.57
2018-05-16T10:59:31.963Z,11.90
2018-05-16T11:01:58.433Z,11.07
2018-05-16T11:04:24.766Z,11.73
2018-05-16T11:06:51.314Z,9.43
2018-05-16T11:09:17.617Z,10.77
2018-05-16T11:11:43.965Z,11.17
2018-05-16T11:14:10.390Z,12.70
2018-05-16T11:16:36.900Z,12.13
2018-05-16T11:19:03.298Z,12.27
2018-05-16T11:21:29.768Z,10.90
2018-05-16T11:23:55.997Z,10.80
2018-05-16T11:26:22.510Z,11.33
2018-05-16T11:28:48.831Z,11.80
2018-05-16T11:31:15.900Z,12.77
2018-05-16T11:33:42.261Z,10.87
2018-05-16T11:36:08.581Z,9.60
2018-05-16T11:38:34.905Z,9.93
2018-05-16T11:41:01.249Z,10.20
2018-05-16T11:43:27.617Z,10.13
2018-05-16T11:45:54.714Z,10.93
2018-05-16T11:48:21.029Z,10.50
2018-05-16T11:50:47.591Z,10.17
2018-05-16T11:53:13.926Z,10.10
2018-05-16T11:55:40.273Z,10.90
2018-05-16T11:58:06.728Z,10.57
2018-05-16T12:00:33.165Z,11.37
2018-05-16T12:03:00.329Z,10.63
2018-05-16T12:05:26.702Z,8.67
2018-05-16T12:07:53.058Z,10.13
2018-05-16T12:10:19.389Z,9.40
2018-05-16T12:12:45.709Z,9.27
2018-05-16T12:15:12.103Z,8.83
2018-05-16T12:17:38.694Z,10.57
2018-05-16T12:20:05.079Z,10.13
2018-05-16T12:22:31.395Z,10.40
2018-05-16T12:24:57.720Z,10.07
2018-05-16T12:27:24.229Z,9.43
2018-05-16T12:29:50.552Z,9.03
2018-05-16T12:32:16.893Z,9.83
2018-05-16T12:34:43.959Z,9.93
2018-05-16T12:37:10.353Z,8.80
2018-05-16T12:39:36.685Z,9.50
2018-05-16T12:42:04.549Z,11.40
2018-05-16T12:44:30.889Z,10.67
2018-05-16T12:46:57.419Z,8.10
2018-05-16T12:49:23.805Z,11.53
2018-05-16T12:51:50.846Z,10.03
2018-05-16T12:54:17.161Z,11.60
2018-05-16T12:56:43.585Z,9.83
2018-05-16T12:59:10.723Z,7.60
2018-05-16T13:01:37.166Z,10.00
2018-05-16T13:04:03.693Z,11.37
2018-05-16T13:06:30.342Z,9.93
2018-05-16T13:08:56.694Z,9.20
2018-05-16T13:11:23.009Z,12.07
2018-05-16T13:13:50.073Z,12.53
2018-05-16T13:16:16.394Z,11.40
2018-05-16T13:18:43.450Z,12.53
2018-05-16T13:21:09.781Z,10.43
2018-05-16T13:23:37.004Z,12.40
2018-05-16T13:26:04.113Z,11.30
2018-05-16T13:28:30.437Z,8.30
2018-05-16T13:30:56.753Z,9.67
2018-05-16T13:33:23.135Z,10.00
2018-05-16T13:35:49.477Z,9.57
2018-05-16T13:38:15.845Z,10.90
2018-05-16T13:40:42.183Z,10.00
2018-05-16T13:43:08.494Z,10.37
2018-05-16T13:45:34.914Z,9.83
2018-05-16T13:48:01.991Z,12.07
2018-05-16T13:50:28.334Z,10.27
2018-05-16T13:52:54.721Z,10.70
2018-05-16T13:55:21.809Z,11.67
2018-05-16T13:57:48.172Z,12.33
2018-05-16T14:00:14.595Z,9.10
2018-05-16T14:02:40.909Z,9.30
2018-05-16T14:05:07.986Z,9.67
2018-05-16T14:07:34.796Z,9.90
2018-05-16T14:10:01.129Z,14.77
2018-05-16T14:12:27.437Z,9.03
2018-05-16T14:14:53.805Z,10.03
2018-05-16T14:17:20.175Z,11.33
2018-05-16T14:19:46.517Z,6.97
2018-05-16T14:22:12.963Z,11.23
2018-05-16T14:24:39.290Z,8.33
2018-05-16T14:27:06.770Z,10.17
2018-05-16T14:29:33.078Z,9.60
2018-05-16T14:31:59.419Z,11.73
2018-05-16T14:34:25.747Z,7.57
2018-05-16T14:36:52.140Z,9.80
2018-05-16T14:39:18.490Z,10.10
2018-05-16T14:41:44.845Z,12.70
2018-05-16T14:44:11.909Z,12.77
2018-05-16T14:46:38.317Z,12.80
2018-05-16T14:49:04.730Z,11.00
2018-05-16T14:51:31.062Z,13.70
2018-05-16T14:53:57.381Z,12.40
2018-05-16T14:56:23.723Z,13.83
2018-05-16T14:58:50.810Z,11.83
2018-05-16T15:01:17.154Z,14.40
2018-05-16T15:03:43.473Z,12.80
2018-05-16T15:06:09.829Z,12.47
2018-05-16T15:08:36.144Z,10.87
2018-05-16T15:11:02.493Z,14.53
2018-05-16T15:13:28.850Z,14.40
2018-05-16T15:15:55.253Z,12.70
2018-05-16T15:18:22.424Z,11.77
2018-05-16T15:20:48.749Z,12.60
2018-05-16T15:23:15.134Z,14.43
2018-05-16T15:25:41.453Z,12.30
2018-05-16T15:28:07.826Z,13.83
2018-05-16T15:30:34.241Z,12.77
2018-05-16T15:33:00.594Z,11.33
2018-05-16T15:35:27.001Z,18.90
2018-05-16T15:37:53.384Z,13.33
2018-05-16T15:40:19.729Z,15.03
2018-05-16T15:42:46.057Z,16.07
2018-05-16T15:45:13.156Z,16.20
2018-05-16T15:47:39.590Z,14.23
2018-05-16T15:50:06.094Z,12.40
2018-05-16T15:52:33.175Z,12.77
2018-05-16T15:54:59.480Z,17.60
2018-05-16T15:57:26.008Z,13.00
2018-05-16T15:59:52.336Z,14.37
2018-05-16T16:02:18.663Z,18.57
2018-05-16T16:04:45.781Z,15.70
2018-05-16T16:07:13.038Z,14.20
2018-05-16T16:09:39.358Z,15.63
2018-05-16T16:12:05.766Z,14.20
2018-05-16T16:14:32.110Z,14.43
2018-05-16T16:16:58.544Z,13.30
2018-05-16T16:19:24.872Z,15.90
2018-05-16T16:21:51.181Z,12.37
2018-05-16T16:24:17.549Z,13.23
2018-05-16T16:26:44.085Z,17.07
2018-05-16T16:29:10.457Z,15.47
2018-05-16T16:31:36.985Z,14.63
2018-05-16T16:34:03.351Z,17.80
2018-05-16T16:36:29.664Z,19.40
2018-05-16T16:38:56.106Z,17.20
2018-05-16T16:41:22.534Z,15.60
2018-05-16T16:43:48.853Z,15.23
2018-05-16T16:46:15.195Z,14.67
2018-05-16T16:48:41.521Z,12.57
2018-05-16T16:51:08.714Z,14.13
2018-05-16T16:53:35.125Z,11.87
2018-05-16T16:56:01.456Z,13.87
2018-05-16T16:58:27.765Z,12.00
2018-05-16T17:00:54.117Z,10.53
2018-05-16T17:03:20.441Z,10.57
2018-05-16T17:05:47.372Z,14.67
2018-05-16T17:08:13.759Z,11.97
2018-05-16T17:10:40.085Z,11.13
2018-05-16T17:13:06.390Z,10.43
2018-05-16T17:15:32.722Z,11.07
2018-05-16T17:17:59.177Z,11.33
2018-05-16T17:20:25.582Z,10.70
2018-05-16T17:22:51.909Z,11.63
2018-05-16T17:25:18.262Z,11.53
2018-05-16T17:27:44.701Z,11.50
2018-05-16T17:30:11.133Z,12.43
2018-05-16T17:32:37.617Z,12.93
2018-05-16T17:35:03.953Z,12.80
2018-05-16T17:37:30.545Z,13.10
2018-05-16T17:39:56.894Z,13.53
2018-05-16T17:42:23.952Z,13.57
2018-05-16T17:44:50.281Z,14.37
2018-05-16T17:47:16.997Z,15.67
2018-05-16T17:49:43.413Z,16.53
2018-05-16T17:52:09.741Z,16.53
2018-05-16T17:54:36.197Z,16.50
2018-05-16T17:57:02.852Z,14.33
2018-05-16T17:59:29.161Z,14.50
2018-05-16T18:01:56.996Z,14.03
2018-05-16T18:04:23.317Z,12.57
2018-05-16T18:06:49.890Z,13.50
2018-05-16T18:09:16.221Z,13.03
2018-05-16T18:11:42.529Z,12.40
2018-05-16T18:14:21.133Z,12.30
2018-05-16T18:16:59.961Z,12.00
2018-05-16T18:19:27.025Z,11.97
2018-05-16T18:21:53.353Z,12.03
2018-05-16T18:24:19.665Z,11.43
2018-05-16T18:26:46.002Z,11.53
2018-05-16T18:29:12.340Z,11.63
2018-05-16T18:31:39.546Z,11.67
2018-05-16T18:34:05.881Z,10.57
2018-05-16T18:36:32.203Z,11.03
2018-05-16T18:38:59.301Z,11.33
2018-05-16T18:41:25.611Z,11.40
2018-05-16T18:43:51.925Z,11.53
2018-05-16T18:46:18.440Z,11.83
2018-05-16T18:48:45.544Z,12.27
2018-05-16T18:51:11.942Z,12.13
2018-05-16T18:53:39.001Z,11.80
2018-05-16T18:56:05.493Z,12.07
2018-05-16T18:58:31.862Z,11.83
2018-05-16T19:00:58.165Z,12.07
2018-05-16T19:03:25.221Z,9.90
2018-05-16T19:05:52.568Z,11.03
2018-05-16T19:08:19.629Z,10.70
2018-05-16T19:10:46.728Z,10.57
2018-05-16T19:13:13.061Z,10.20
2018-05-16T19:15:40.156Z,9.97
2018-05-16T19:18:06.728Z,10.10
2018-05-16T19:20:33.077Z,10.30
2018-05-16T19:23:00.206Z,10.37
2018-05-16T19:25:26.547Z,9.83
2018-05-16T19:27:53.229Z,10.10
2018-05-16T19:30:20.322Z,9.57
2018-05-16T19:32:47.365Z,9.10
2018-05-16T19:35:13.713Z,9.93
2018-05-16T19:37:40.327Z,10.07
2018-05-16T19:40:06.682Z,9.67
2018-05-16T19:42:33.013Z,9.27
2018-05-16T19:44:59.326Z,9.30
2018-05-16T19:47:25.805Z,9.70
2018-05-16T19:49:52.183Z,9.17
2018-05-16T19:52:18.529Z,8.60
2018-05-16T19:54:44.857Z,8.83
2018-05-16T19:57:11.339Z,9.40
2018-05-16T19:59:37.714Z,8.83
2018-05-16T20:02:04.074Z,9.67
2018-05-16T20:04:30.417Z,9.07
2018-05-16T20:06:56.765Z,8.80
2018-05-16T20:09:23.077Z,9.90
2018-05-16T20:11:49.406Z,9.30
2018-05-16T20:14:15.777Z,8.80
2018-05-16T20:16:42.874Z,8.57
2018-05-16T20:19:09.272Z,9.00
2018-05-16T20:21:35.593Z,8.00
2018-05-16T20:24:01.932Z,7.97
2018-05-16T20:26:28.269Z,7.87
2018-05-16T20:28:54.599Z,8.47
2018-05-16T20:31:20.910Z,8.53
2018-05-16T20:33:47.981Z,8.23
2018-05-16T20:36:14.385Z,9.30
2018-05-16T20:38:41.474Z,9.53
2018-05-16T20:41:08.598Z,9.80
2018-05-16T20:43:35.034Z,10.73
2018-05-16T20:46:01.490Z,10.87
2018-05-16T20:48:27.824Z,11.23
2018-05-16T20:50:54.190Z,10.83
2018-05-16T20:53:20.557Z,10.70
2018-05-16T20:55:46.885Z,11.27
2018-05-16T20:58:14.020Z,11.40
2018-05-16T21:00:41.177Z,8.57
2018-05-16T21:03:07.569Z,8.10
2018-05-16T21:05:34.644Z,9.13
2018-05-16T21:08:01.184Z,9.00
2018-05-16T21:10:28.309Z,8.77
2018-05-16T21:12:54.725Z,8.00
2018-05-16T21:15:21.085Z,9.43
2018-05-16T21:17:47.603Z,9.83
2018-05-16T21:20:14.054Z,8.77
2018-05-16T21:22:40.481Z,9.73
2018-05-16T21:25:08.961Z,10.63
2018-05-16T21:27:35.626Z,11.00
2018-05-16T21:30:02.917Z,10.03
2018-05-16T21:32:29.228Z,9.60
2018-05-16T21:34:55.555Z,11.20
2018-05-16T21:37:22.773Z,11.03
2018-05-16T21:39:50.553Z,10.00
2018-05-16T21:42:17.618Z,10.30
2018-05-16T21:44:44.708Z,7.90
2018-05-16T21:47:11.367Z,8.90
2018-05-16T21:49:37.824Z,9.33
2018-05-16T21:52:04.245Z,8.93
2018-05-16T21:54:30.637Z,8.17
2018-05-16T21:56:57.001Z,8.50
2018-05-16T21:59:23.497Z,8.20
2018-05-16T22:01:49.863Z,8.57
2018-05-16T22:04:16.165Z,8.50
2018-05-16T22:06:42.570Z,8.87
2018-05-16T22:09:08.996Z,8.70
2018-05-16T22:11:35.449Z,8.47
2018-05-16T22:14:02.257Z,8.90
2018-05-16T22:16:28.741Z,9.90
2018-05-16T22:18:55.097Z,9.40
2018-05-16T22:21:22.238Z,9.30
2018-05-16T22:23:48.565Z,10.00
2018-05-16T22:26:14.942Z,10.00
2018-05-16T22:28:42.183Z,9.70
2018-05-16T22:31:14.678Z,9.87
2018-05-16T22:33:47.794Z,10.47
2018-05-16T22:36:20.184Z,10.50
2018-05-16T22:38:52.557Z,11.37
2018-05-16T22:41:24.890Z,10.13
2018-05-16T22:43:57.237Z,11.87
2018-05-16T22:46:23.753Z,11.67
2018-05-16T22:48:50.102Z,11.73
2018-05-16T22:51:16.449Z,11.47
2018-05-16T22:53:43.577Z,11.50
2018-05-16T22:56:09.913Z,11.13
2018-05-16T22:58:36.264Z,11.23
2018-05-16T23:01:02.634Z,11.07
2018-05-16T23:03:28.997Z,11.30
2018-05-16T23:05:55.499Z,10.83
2018-05-16T23:08:21.853Z,12.70
2018-05-16T23:10:48.210Z,12.90
2018-05-16T23:13:14.585Z,13.00
2018-05-16T23:15:40.953Z,13.07
2018-05-16T23:18:07.276Z,13.07
2018-05-16T23:20:34.365Z,12.43
2018-05-16T23:23:01.412Z,11.67
2018-05-16T23:25:28.496Z,11.60
2018-05-16T23:27:54.872Z,12.77
2018-05-16T23:30:21.201Z,11.53
2018-05-16T23:32:47.545Z,11.17
2018-05-16T23:35:14.597Z,11.23
2018-05-16T23:37:42.047Z,11.20
2018-05-16T23:40:08.402Z,11.03
2018-05-16T23:42:34.779Z,10.83
2018-05-16T23:45:01.841Z,13.50
2018-05-16T23:47:28.417Z,13.70
2018-05-16T23:49:54.745Z,13.70
2018-05-16T23:52:21.053Z,13.03
2018-05-16T23:54:48.133Z,12.60
2018-05-16T23:57:14.513Z,13.00
2018-05-16T23:59:40.853Z,12.77
